Fine Lakes, Minnesota
Current Conditions -  °F | °C
As of 10:16 AM on Thursday 18 Dec 2014 (Local Time) from KCOQ Reporting Station
Overcast Overcast  
Wind Chill: 19°   Ceiling: 1500
Heat Index: 19°   Visibility: 10mi
Dew Point: 18°   Wind: 0mph
Humidity: 93%   Direction: NA
Pressure: 30.27"   Gusts: NA
Location:  46.8211°N, 92.6871°W
Report Text: KCOQ 181616Z AUTO 00000KT 10SM OVC015 M07/M08 A3027 RMK AO2
Loading
Personal Weather Stations






























Interactive Weather Map New forecast layout! Learn more

10-Day Weather Forecast

Advertisements
Track Severe Weather on mobile